Time;durP1;ratioP1;P1;durP2;ratioP2;P2;SDS_P1;SDS_P2;PMS_P1;PMS_P2;Temp;Humidity;BMP_temperature;BMP_pressure;BME280_temperature;BME280_humidity;BME280_pressure;Samples;Min_cycle;Max_cycle;Signal;HPM_P1;HPM_P2
2022/09/30 00:02:32;;;;;;;11.35;6.70;;;;;;;17.65;63.23;100657.16;5072987;27;20413;-72
2022/09/30 00:04:58;;;;;;;9.35;7.32;;;;;;;17.65;63.35;100651.81;5035364;28;20469;-72
2022/09/30 00:07:24;;;;;;;8.37;6.63;;;;;;;17.63;63.38;100650.38;5027718;28;20379;-72
2022/09/30 00:09:49;;;;;;;9.13;6.50;;;;;;;17.63;63.55;100650.38;5032285;28;20382;-72
2022/09/30 00:13:46;;;;;;;10.82;8.20;;;;;;;17.62;63.61;100659.47;5056837;27;20922;-73
2022/09/30 00:16:14;;;;;;;10.75;7.65;;;;;;;17.63;63.51;100658.41;5059504;28;20467;-72
2022/09/30 00:18:41;;;;;;;9.07;6.97;;;;;;;17.65;63.61;100665.22;5046540;28;20756;-72
2022/09/30 00:23:22;;;;;;;8.02;6.40;;;;;;;17.64;63.62;100655.50;5076152;27;20404;-70
2022/09/30 00:25:48;;;;;;;13.95;8.70;;;;;;;17.65;63.50;100662.53;5050716;28;20405;-70
2022/09/30 00:28:15;;;;;;;10.23;7.63;;;;;;;17.67;63.60;100673.84;5053327;28;20384;-69
2022/09/30 00:30:41;;;;;;;10.30;7.37;;;;;;;17.66;63.58;100668.69;5066448;28;20471;-70
2022/09/30 00:33:07;;;;;;;8.87;7.13;;;;;;;17.65;63.45;100662.53;5038826;28;20471;-70
2022/09/30 00:38:40;;;;;;;12.48;8.80;;;;;;;17.63;63.91;100642.31;5065576;27;21001;-71
2022/09/30 00:41:06;;;;;;;11.48;8.88;;;;;;;17.64;63.59;100638.63;5061940;28;20936;-71
2022/09/30 00:43:41;;;;;;;15.60;12.33;;;;;;;17.66;63.42;100645.38;5046870;28;20933;-71
2022/09/30 00:46:18;;;;;;;10.13;8.05;;;;;;;17.68;63.35;100648.69;5046524;28;20392;-70
2022/09/30 00:48:45;;;;;;;10.05;7.53;;;;;;;17.66;63.68;100644.56;5046891;28;20473;-70
2022/09/30 00:51:11;;;;;;;11.43;7.57;;;;;;;17.63;63.60;100642.31;5046423;28;20382;-70
2022/09/30 00:55:45;;;;;;;11.13;7.35;;;;;;;17.63;63.59;100647.69;5070115;27;20992;-70
2022/09/30 00:58:19;;;;;;;13.98;7.82;;;;;;;17.63;63.64;100645.00;5046069;28;20410;-70
2022/09/30 01:00:45;;;;;;;13.03;7.60;;;;;;;17.60;63.53;100637.41;5037821;28;20392;-71
2022/09/30 01:03:10;;;;;;;9.47;7.50;;;;;;;17.54;63.71;100642.59;5026413;28;20383;-69
2022/09/30 01:05:36;;;;;;;9.88;7.75;;;;;;;17.56;63.86;100640.53;5026871;28;20380;-70
2022/09/30 01:09:53;;;;;;;10.07;7.28;;;;;;;17.55;63.99;100638.06;5071396;27;20404;-69
2022/09/30 01:12:22;;;;;;;19.50;7.80;;;;;;;17.52;63.90;100633.97;5060518;28;20393;-69
2022/09/30 01:14:52;;;;;;;9.45;7.35;;;;;;;17.46;64.02;100631.34;5058559;28;20419;-69
2022/09/30 01:17:47;;;;;;;8.82;7.32;;;;;;;17.50;64.06;100651.28;5052577;28;20380;-70
2022/09/30 01:20:58;;;;;;;8.90;7.77;;;;;;;17.49;63.83;100642.44;5052174;28;20428;-70
2022/09/30 01:23:56;;;;;;;7.72;6.70;;;;;;;17.46;64.06;100640.19;5042345;28;20455;-70
2022/09/30 01:26:27;;;;;;;10.98;6.70;;;;;;;17.49;63.97;100638.94;5044665;28;20874;-70
2022/09/30 01:28:53;;;;;;;8.60;6.80;;;;;;;17.45;64.14;100659.16;5052193;28;20421;-71
2022/09/30 01:31:33;;;;;;;8.07;6.93;;;;;;;17.45;64.22;100662.69;5059104;28;20390;-71
2022/09/30 01:34:02;;;;;;;9.43;6.70;;;;;;;17.43;64.13;100659.41;5061571;28;20402;-70
2022/09/30 01:36:42;;;;;;;8.02;7.18;;;;;;;17.46;64.01;100669.66;5066693;28;20773;-71
2022/09/30 01:39:25;;;;;;;8.93;7.07;;;;;;;17.47;63.99;100675.88;5050196;28;20378;-71
2022/09/30 01:42:26;;;;;;;8.77;6.57;;;;;;;17.45;63.94;100667.19;5056807;28;20391;-70
2022/09/30 01:44:54;;;;;;;7.97;6.90;;;;;;;17.44;63.88;100671.75;5040258;28;20450;-70
2022/09/30 01:47:33;;;;;;;8.15;7.00;;;;;;;17.42;64.05;100675.69;5052509;28;20400;-70
2022/09/30 01:50:08;;;;;;;9.20;7.13;;;;;;;17.40;63.91;100678.59;5046231;28;20895;-70
2022/09/30 01:52:43;;;;;;;9.00;7.65;;;;;;;17.42;63.93;100681.03;5030617;28;20400;-71
2022/09/30 01:58:30;;;;;;;9.48;7.57;;;;;;;17.39;64.01;100675.09;5075042;28;20414;-71
2022/09/30 02:01:00;;;;;;;8.18;6.88;;;;;;;17.38;64.01;100665.41;5046855;28;20401;-70
2022/09/30 02:03:35;;;;;;;8.15;7.35;;;;;;;17.44;64.13;100673.59;5032541;28;20386;-70
2022/09/30 02:06:16;;;;;;;8.50;7.60;;;;;;;17.45;64.00;100670.72;5046751;28;20389;-71
2022/09/30 02:08:59;;;;;;;8.48;7.68;;;;;;;17.44;63.99;100658.34;5033926;28;20910;-70
2022/09/30 02:11:31;;;;;;;8.40;7.57;;;;;;;17.46;64.06;100658.13;5046364;28;20910;-70
2022/09/30 02:15:31;;;;;;;9.98;7.85;;;;;;;17.38;64.06;100638.59;5150407;27;20466;-70
2022/09/30 02:18:27;;;;;;;13.30;7.57;;;;;;;17.33;64.32;100643.78;5075018;27;20412;-70
2022/09/30 02:20:59;;;;;;;8.55;7.45;;;;;;;17.34;64.29;100650.78;5042391;28;20395;-70
2022/09/30 02:23:28;;;;;;;8.95;7.47;;;;;;;17.38;64.29;100657.34;5052387;28;20877;-70
2022/09/30 02:26:09;;;;;;;8.70;7.57;;;;;;;17.44;64.17;100673.59;5066449;28;20502;-72
2022/09/30 02:28:41;;;;;;;8.98;7.90;;;;;;;17.43;63.97;100675.47;5053516;28;20891;-71
2022/09/30 02:31:12;;;;;;;8.85;7.90;;;;;;;17.43;64.30;100667.44;5060481;28;20834;-71
2022/09/30 02:33:46;;;;;;;9.90;7.50;;;;;;;17.48;64.38;100680.97;5059217;28;20885;-70
2022/09/30 02:36:55;;;;;;;9.40;8.40;;;;;;;17.49;64.21;100701.41;5064495;28;20410;-70
2022/09/30 02:39:45;;;;;;;12.88;10.07;;;;;;;17.50;64.28;100695.00;5046299;28;20488;-70
2022/09/30 02:42:19;;;;;;;12.40;10.88;;;;;;;17.54;64.13;100717.66;5046805;28;20382;-70
2022/09/30 02:47:26;;;;;;;11.80;9.70;;;;;;;17.56;64.47;100704.84;5075648;27;20408;-70
2022/09/30 02:50:07;;;;;;;8.73;7.78;;;;;;;17.58;64.38;100704.66;5060262;28;20420;-70
2022/09/30 02:52:43;;;;;;;10.45;9.32;;;;;;;17.60;64.49;100707.94;5060524;28;20383;-71
2022/09/30 02:55:49;;;;;;;10.55;8.93;;;;;;;17.60;64.41;100707.13;5054221;28;20399;-70
2022/09/30 02:58:20;;;;;;;10.10;8.10;;;;;;;17.64;64.34;100702.94;5047166;28;20754;-70
2022/09/30 03:00:47;;;;;;;12.65;9.85;;;;;;;17.63;64.41;100710.19;5054099;28;20485;-70
2022/09/30 03:03:41;;;;;;;10.93;9.55;;;;;;;17.67;64.26;100715.94;5090783;27;20466;-70
2022/09/30 03:06:06;;;;;;;10.38;9.13;;;;;;;17.66;64.38;100712.41;5066713;28;20400;-70
2022/09/30 03:08:32;;;;;;;9.93;8.20;;;;;;;17.68;64.21;100706.84;5053095;28;20768;-70
2022/09/30 03:10:58;;;;;;;11.37;8.17;;;;;;;17.65;64.27;100701.94;5066508;28;20380;-70
2022/09/30 03:15:17;;;;;;;12.85;9.30;;;;;;;17.67;64.23;100708.69;5094375;27;20459;-71
2022/09/30 03:18:02;;;;;;;11.13;9.18;;;;;;;17.66;64.06;100720.44;5078930;28;20770;-70
2022/09/30 03:22:50;;;;;;;10.02;8.50;;;;;;;17.61;63.98;100711.41;5054111;27;20826;-70
2022/09/30 03:25:34;;;;;;;14.65;8.95;;;;;;;17.49;64.21;100709.44;5052682;28;20444;-70
2022/09/30 03:28:26;;;;;;;12.02;8.93;;;;;;;17.49;64.34;100703.25;5035032;28;20477;-69
2022/09/30 03:31:07;;;;;;;11.63;9.30;;;;;;;17.52;64.04;100706.34;5044595;28;20401;-70
2022/09/30 03:33:52;;;;;;;12.68;9.50;;;;;;;17.51;64.18;100706.53;5046211;28;20428;-70
2022/09/30 03:40:19;;;;;;;12.57;10.18;;;;;;;17.46;64.34;100699.13;5077912;28;20474;-70
2022/09/30 03:42:51;;;;;;;11.40;8.90;;;;;;;17.45;64.49;100710.06;5052259;28;20400;-70
2022/09/30 03:45:31;;;;;;;12.93;9.40;;;;;;;17.43;64.51;100704.09;5066477;28;20759;-70
2022/09/30 03:48:03;;;;;;;14.55;10.32;;;;;;;17.47;64.56;100714.19;5046493;28;20859;-69
2022/09/30 03:52:48;;;;;;;11.90;9.25;;;;;;;17.48;64.49;100720.38;5089120;27;20459;-70
2022/09/30 03:55:15;;;;;;;12.43;9.80;;;;;;;17.50;64.24;100727.19;5078924;28;20436;-70
2022/09/30 03:57:43;;;;;;;13.50;9.38;;;;;;;17.49;64.18;100720.16;5081522;28;20382;-70
2022/09/30 04:00:11;;;;;;;14.77;9.70;;;;;;;17.42;64.06;100715.88;5085615;28;20424;-69
2022/09/30 04:02:36;;;;;;;15.88;9.65;;;;;;;17.42;64.02;100722.06;5084272;28;20394;-70
2022/09/30 04:05:04;;;;;;;16.57;9.17;;;;;;;17.43;64.16;100718.34;5080972;28;20402;-69
2022/09/30 04:07:30;;;;;;;11.48;9.20;;;;;;;17.42;64.11;100716.69;5086244;28;20386;-70
2022/09/30 04:09:56;;;;;;;15.25;9.18;;;;;;;17.41;64.06;100711.53;5082933;28;20384;-70
2022/09/30 04:12:21;;;;;;;17.87;10.10;;;;;;;17.39;63.94;100723.31;5069864;28;20442;-69
2022/09/30 04:14:47;;;;;;;16.17;9.50;;;;;;;17.41;63.95;100727.63;5078013;28;20966;-69
2022/09/30 04:17:12;;;;;;;11.88;8.98;;;;;;;17.36;64.02;100715.69;5072520;28;20398;-70
2022/09/30 04:19:39;;;;;;;12.77;9.50;;;;;;;17.38;64.00;100721.66;5075934;28;20763;-70
2022/09/30 04:22:07;;;;;;;16.38;9.40;;;;;;;17.40;64.05;100726.81;5067583;28;20932;-70
2022/09/30 04:25:52;;;;;;;16.35;10.75;;;;;;;17.36;63.71;100725.59;5053505;27;20408;-70
2022/09/30 04:28:18;;;;;;;16.17;10.93;;;;;;;17.27;64.14;100729.53;5066578;28;20462;-69
2022/09/30 04:30:43;;;;;;;16.95;11.88;;;;;;;17.28;64.04;100745.41;5063877;28;20389;-69
2022/09/30 04:33:09;;;;;;;16.60;11.30;;;;;;;17.36;63.93;100744.38;5036754;28;20403;-70
2022/09/30 04:35:36;;;;;;;18.97;11.03;;;;;;;17.41;63.80;100752.56;5043380;28;20441;-70
2022/09/30 04:38:05;;;;;;;15.13;10.05;;;;;;;17.47;63.77;100757.06;5058439;28;20408;-69
2022/09/30 04:40:31;;;;;;;14.80;10.10;;;;;;;17.54;63.78;100751.69;5051777;28;20416;-70
2022/09/30 04:42:57;;;;;;;19.77;11.77;;;;;;;17.54;63.88;100744.47;5045713;28;20398;-70
2022/09/30 04:45:23;;;;;;;17.85;10.40;;;;;;;17.56;63.92;100750.41;5050194;28;20479;-70
2022/09/30 04:47:48;;;;;;;14.32;10.43;;;;;;;17.57;63.78;100764.63;5048168;28;20385;-71
2022/09/30 04:50:15;;;;;;;20.58;11.45;;;;;;;17.60;63.66;100758.84;5048322;28;20761;-70
2022/09/30 04:52:42;;;;;;;16.83;11.27;;;;;;;17.63;63.72;100768.31;5046211;28;20472;-68
2022/09/30 04:55:08;;;;;;;15.98;10.32;;;;;;;17.68;63.61;100773.84;5044422;28;20390;-70
2022/09/30 04:57:34;;;;;;;12.68;9.63;;;;;;;17.75;63.35;100771.94;5053174;28;20396;-69
2022/09/30 05:00:00;;;;;;;15.20;10.13;;;;;;;17.87;62.99;100782.84;5053023;28;20507;-69
2022/09/30 05:02:26;;;;;;;15.13;10.60;;;;;;;18.09;62.74;100780.63;5046084;28;20377;-70
2022/09/30 05:04:54;;;;;;;12.20;8.90;;;;;;;18.31;62.17;100776.53;5051136;28;20855;-69
2022/09/30 05:07:20;;;;;;;15.05;9.57;;;;;;;18.41;61.90;100786.75;5045835;28;20401;-70
2022/09/30 05:09:45;;;;;;;17.15;10.27;;;;;;;18.42;62.15;100782.22;5051572;28;20383;-69
2022/09/30 05:12:11;;;;;;;14.20;11.37;;;;;;;18.61;61.79;100781.22;5046193;28;20377;-69
2022/09/30 05:14:36;;;;;;;12.10;10.70;;;;;;;18.74;60.97;100782.94;5044958;28;20394;-69
2022/09/30 05:17:02;;;;;;;17.53;10.80;;;;;;;18.87;60.60;100779.31;5045523;28;20386;-69
2022/09/30 05:19:28;;;;;;;13.60;9.95;;;;;;;19.08;60.51;100788.81;5045996;28;20404;-69
2022/09/30 05:21:53;;;;;;;20.02;12.73;;;;;;;19.20;60.17;100778.94;5045648;28;20902;-69
2022/09/30 05:24:19;;;;;;;18.03;11.40;;;;;;;19.03;60.60;100783.28;5054383;28;20424;-69
2022/09/30 05:26:44;;;;;;;22.27;15.02;;;;;;;18.96;60.51;100791.44;5077602;28;20397;-69
2022/09/30 05:29:10;;;;;;;23.27;15.13;;;;;;;19.06;60.14;100791.72;5053421;28;20395;-69
2022/09/30 05:31:35;;;;;;;17.33;11.63;;;;;;;19.19;59.85;100800.66;5085797;28;20864;-69
2022/09/30 05:34:01;;;;;;;14.67;10.43;;;;;;;19.28;59.28;100802.84;5069141;28;20376;-69
2022/09/30 05:36:26;;;;;;;16.57;11.83;;;;;;;19.33;59.10;100812.09;5071434;28;20503;-69
2022/09/30 05:38:53;;;;;;;19.23;11.70;;;;;;;19.23;59.12;100820.66;5052440;28;20413;-69
2022/09/30 05:41:19;;;;;;;17.40;11.57;;;;;;;19.14;59.15;100824.69;5052257;28;20890;-70
2022/09/30 05:43:49;;;;;;;18.33;12.93;;;;;;;19.20;58.91;100827.31;5034243;28;20511;-69
2022/09/30 05:46:15;;;;;;;15.18;11.68;;;;;;;19.37;58.27;100849.03;5051857;28;20381;-69
2022/09/30 05:48:41;;;;;;;12.75;9.63;;;;;;;19.59;57.58;100854.78;5062649;28;20387;-69
2022/09/30 05:51:06;;;;;;;17.17;9.93;;;;;;;20.04;56.73;100859.78;5073093;28;20777;-69
2022/09/30 05:53:37;;;;;;;15.23;8.20;;;;;;;20.38;55.96;100859.25;5063019;28;20380;-70
2022/09/30 05:56:06;;;;;;;12.00;7.47;;;;;;;20.79;55.15;100857.56;5052448;28;20758;-69
2022/09/30 05:58:32;;;;;;;8.13;7.15;;;;;;;20.90;54.36;100864.00;5071830;28;20892;-68
2022/09/30 06:01:05;;;;;;;12.97;7.13;;;;;;;20.87;54.61;100854.53;5060046;28;20430;-69
2022/09/30 06:03:31;;;;;;;12.50;7.38;;;;;;;21.14;53.92;100862.09;5065662;28;20387;-69
2022/09/30 06:05:56;;;;;;;10.15;6.82;;;;;;;21.73;52.88;100870.09;5069140;28;20769;-68
2022/09/30 06:09:35;;;;;;;9.18;6.05;;;;;;;22.42;50.84;100866.47;5054508;27;21004;-69
2022/09/30 06:12:00;;;;;;;9.55;5.90;;;;;;;22.84;49.94;100866.84;5063971;28;20392;-70
2022/09/30 06:14:27;;;;;;;10.30;5.87;;;;;;;23.07;49.03;100859.66;5055526;28;20746;-72
2022/09/30 06:16:53;;;;;;;17.77;5.90;;;;;;;23.24;48.47;100857.69;5052458;28;20842;-68
2022/09/30 06:19:20;;;;;;;7.90;6.22;;;;;;;23.32;48.28;100847.50;5061072;28;20482;-72
2022/09/30 06:21:45;;;;;;;11.82;5.75;;;;;;;23.65;47.55;100851.97;5055683;28;20389;-71
2022/09/30 06:24:13;;;;;;;9.50;5.77;;;;;;;24.28;46.73;100855.03;5076889;28;20476;-71
2022/09/30 06:26:39;;;;;;;9.05;5.90;;;;;;;25.39;43.95;100863.38;5066748;28;20425;-71
2022/09/30 06:29:04;;;;;;;9.93;5.43;;;;;;;26.61;41.71;100853.78;5065714;28;20420;-71
2022/09/30 06:31:30;;;;;;;8.30;5.50;;;;;;;27.03;40.76;100859.97;5066177;28;20384;-71
2022/09/30 06:33:56;;;;;;;9.90;5.67;;;;;;;27.61;39.13;100867.66;5066032;28;20380;-70
2022/09/30 06:36:22;;;;;;;9.18;5.78;;;;;;;27.77;38.90;100874.63;5065910;28;20387;-72
2022/09/30 06:38:50;;;;;;;7.53;5.97;;;;;;;28.13;37.98;100868.97;5066020;28;20475;-71
2022/09/30 06:41:16;;;;;;;9.57;6.03;;;;;;;28.00;38.25;100886.78;5063071;28;20388;-72
2022/09/30 06:43:41;;;;;;;11.73;6.27;;;;;;;27.20;40.24;100886.84;5066173;28;20792;-72
2022/09/30 06:46:07;;;;;;;7.75;5.93;;;;;;;26.20;41.96;100894.56;5065528;28;20378;-72
2022/09/30 06:48:33;;;;;;;10.75;6.38;;;;;;;25.63;43.76;100890.06;5065517;28;20484;-71
2022/09/30 06:50:59;;;;;;;7.97;5.23;;;;;;;25.32;44.26;100889.94;5052243;28;20386;-70
2022/09/30 06:53:26;;;;;;;8.60;5.30;;;;;;;25.08;44.67;100887.59;5057970;28;20415;-72
2022/09/30 06:55:56;;;;;;;8.40;5.13;;;;;;;24.90;44.86;100886.16;5049808;28;20915;-70
2022/09/30 06:58:23;;;;;;;5.73;3.80;;;;;;;24.54;44.65;100891.34;5046747;28;20389;-72
2022/09/30 07:01:03;;;;;;;6.22;4.00;;;;;;;24.11;44.95;100900.38;5051360;28;20452;-73
2022/09/30 07:03:34;;;;;;;5.63;4.25;;;;;;;24.07;45.62;100908.19;5048664;28;20398;-72
2022/09/30 07:06:04;;;;;;;7.72;4.35;;;;;;;24.19;45.66;100910.75;5051345;28;20993;-73
2022/09/30 07:08:31;;;;;;;6.03;3.93;;;;;;;24.23;45.44;100899.13;5045393;28;20848;-73
2022/09/30 07:10:58;;;;;;;5.68;4.43;;;;;;;24.20;45.27;100901.53;5046090;28;20409;-73
2022/09/30 07:13:24;;;;;;;8.38;4.75;;;;;;;23.79;45.77;100903.81;5046784;28;20394;-73
2022/09/30 07:17:42;;;;;;;9.25;5.20;;;;;;;24.03;45.85;100920.63;5070609;27;20469;-73
2022/09/30 07:20:08;;;;;;;8.20;6.35;;;;;;;24.32;45.53;100933.91;5065930;28;20400;-72
2022/09/30 07:22:34;;;;;;;8.57;7.20;;;;;;;24.37;45.87;100928.53;5065645;28;20907;-73
2022/09/30 07:25:02;;;;;;;10.77;7.70;;;;;;;23.79;47.02;100926.28;5066404;28;20402;-72
2022/09/30 07:27:30;;;;;;;10.13;7.80;;;;;;;23.71;47.38;100928.63;5066346;28;20383;-73
2022/09/30 07:29:56;;;;;;;8.95;7.85;;;;;;;23.82;46.90;100935.81;5066266;28;20415;-72
2022/09/30 07:32:21;;;;;;;8.73;7.63;;;;;;;23.89;46.80;100933.72;5066115;28;20414;-73
2022/09/30 07:34:47;;;;;;;9.30;7.97;;;;;;;23.92;47.06;100935.94;5064591;28;20739;-71
2022/09/30 07:37:15;;;;;;;10.02;7.38;;;;;;;23.99;46.81;100927.63;5065462;28;20921;-72
2022/09/30 07:41:06;;;;;;;8.52;7.10;;;;;;;24.00;47.29;100943.63;5083580;27;20399;-71
2022/09/30 07:43:39;;;;;;;8.10;7.10;;;;;;;24.03;46.92;100937.69;5081850;28;20498;-73
2022/09/30 07:46:11;;;;;;;9.35;7.13;;;;;;;24.18;47.06;100937.03;5065448;28;20388;-72
2022/09/30 07:48:43;;;;;;;10.73;6.77;;;;;;;24.18;47.46;100949.75;5065918;28;20407;-75
2022/09/30 07:51:23;;;;;;;8.20;6.38;;;;;;;24.34;46.96;100948.81;5063157;28;20404;-71
2022/09/30 07:53:51;;;;;;;9.80;5.78;;;;;;;24.42;46.25;100953.78;5064333;28;20391;-72
2022/09/30 07:56:18;;;;;;;6.80;5.68;;;;;;;24.20;45.98;100955.72;5066138;28;20437;-73
2022/09/30 07:58:44;;;;;;;8.30;5.50;;;;;;;24.34;46.21;100966.97;5065094;28;20396;-74
2022/09/30 08:01:10;;;;;;;10.05;6.05;;;;;;;24.54;45.96;100964.50;5065654;28;20376;-73
2022/09/30 08:03:38;;;;;;;8.48;6.03;;;;;;;24.39;45.97;100973.25;5064968;28;20430;-73
2022/09/30 08:06:09;;;;;;;10.07;5.95;;;;;;;24.08;46.59;100960.50;5057707;28;20411;-74
2022/09/30 08:08:35;;;;;;;7.97;6.10;;;;;;;24.02;46.62;100963.13;5059760;28;20824;-72
2022/09/30 08:11:01;;;;;;;9.57;6.10;;;;;;;24.22;46.67;100967.16;5058261;28;20913;-74
2022/09/30 08:13:27;;;;;;;8.40;5.82;;;;;;;24.17;47.05;100962.47;5064815;28;20754;-73
2022/09/30 08:15:52;;;;;;;9.13;5.87;;;;;;;24.39;46.94;100961.59;5063332;28;20400;-74
2022/09/30 08:18:18;;;;;;;12.20;6.30;;;;;;;24.36;46.77;100968.38;5065335;28;20391;-73
2022/09/30 08:20:43;;;;;;;13.90;6.90;;;;;;;24.39;46.63;100970.53;5045478;28;20475;-72
2022/09/30 08:23:09;;;;;;;8.00;6.28;;;;;;;24.18;47.07;100976.81;5056446;28;20431;-73
2022/09/30 08:25:34;;;;;;;10.70;5.97;;;;;;;24.09;47.68;100975.66;5065486;28;20380;-72
2022/09/30 08:28:00;;;;;;;6.78;6.05;;;;;;;24.11;47.91;100974.34;5065728;28;20394;-73
2022/09/30 08:30:26;;;;;;;7.60;5.80;;;;;;;24.04;47.75;100974.53;5065100;28;20463;-73
2022/09/30 08:32:51;;;;;;;8.05;5.80;;;;;;;24.14;47.41;100981.94;5065423;28;20395;-69
2022/09/30 08:35:17;;;;;;;12.53;6.23;;;;;;;24.03;47.69;100974.78;5065320;28;20383;-70
2022/09/30 08:37:42;;;;;;;8.13;5.63;;;;;;;24.19;47.65;100965.75;5064852;28;20487;-68
2022/09/30 08:40:26;;;;;;;7.85;5.38;;;;;;;24.37;47.22;100972.69;5063553;28;20428;-72
2022/09/30 08:43:03;;;;;;;7.47;5.82;;;;;;;24.34;47.11;100970.50;5065002;28;20408;-69
2022/09/30 08:45:51;;;;;;;8.00;5.40;;;;;;;24.30;47.58;100969.38;5064571;28;20894;-69
2022/09/30 08:48:42;;;;;;;8.77;5.85;;;;;;;24.18;47.35;100972.25;5064037;28;20388;-69
2022/09/30 08:53:24;;;;;;;12.45;5.47;;;;;;;24.23;47.91;100968.75;5078605;27;20461;-70
2022/09/30 08:55:52;;;;;;;9.40;5.75;;;;;;;24.25;47.71;100963.91;5053098;28;20404;-69
2022/09/30 08:58:20;;;;;;;11.15;5.80;;;;;;;24.14;47.96;100962.16;5066364;28;20917;-70
2022/09/30 09:00:47;;;;;;;11.40;5.45;;;;;;;24.21;48.20;100968.22;5065151;28;20924;-71
2022/09/30 09:03:13;;;;;;;7.90;5.22;;;;;;;24.31;47.76;100975.59;5066240;28;20392;-70
2022/09/30 09:06:20;;;;;;;8.93;5.13;;;;;;;24.37;47.45;100970.00;5065788;28;20812;-70
2022/09/30 09:09:07;;;;;;;8.80;5.13;;;;;;;24.19;47.53;100964.94;5057460;28;20404;-69
2022/09/30 09:11:43;;;;;;;9.77;5.30;;;;;;;24.19;47.90;100962.22;5056479;28;20967;-69
2022/09/30 09:14:20;;;;;;;8.07;5.70;;;;;;;23.91;48.38;100953.25;5046416;28;20386;-69
2022/09/30 09:17:09;;;;;;;7.95;5.22;;;;;;;23.96;48.31;100957.91;5046003;28;20388;-67
2022/09/30 09:19:47;;;;;;;7.75;5.20;;;;;;;23.84;48.75;100958.03;5046438;28;20883;-68
2022/09/30 09:22:12;;;;;;;8.45;5.65;;;;;;;23.83;48.32;100957.22;5061890;28;20400;-68
2022/09/30 09:24:49;;;;;;;7.18;5.30;;;;;;;23.84;48.53;100958.03;5046320;28;20919;-68
2022/09/30 09:27:29;;;;;;;7.35;5.28;;;;;;;23.76;49.20;100950.34;5061445;28;20380;-68
2022/09/30 09:30:10;;;;;;;8.25;5.35;;;;;;;23.71;48.87;100963.81;5056143;28;20401;-67
2022/09/30 09:32:36;;;;;;;7.25;5.20;;;;;;;23.55;49.32;100976.31;5063315;28;21036;-67
2022/09/30 09:35:14;;;;;;;9.00;5.50;;;;;;;23.58;49.21;100975.81;5055684;28;20416;-68
2022/09/30 09:40:56;;;;;;;7.18;4.97;;;;;;;23.60;48.82;100989.91;5051514;28;20455;-68
2022/09/30 09:43:33;;;;;;;6.57;4.60;;;;;;;23.43;49.19;100989.97;5065654;28;20376;-68
2022/09/30 09:46:20;;;;;;;5.90;4.70;;;;;;;23.51;48.60;100994.94;5063034;28;20382;-68
2022/09/30 09:48:45;;;;;;;6.50;3.92;;;;;;;23.64;47.50;101000.00;5056640;28;20513;-68
2022/09/30 09:51:35;;;;;;;9.43;4.13;;;;;;;23.65;47.43;101004.34;5064866;28;20434;-67
2022/09/30 09:54:03;;;;;;;9.55;4.85;;;;;;;23.72;48.14;101011.47;5068462;28;21090;-70
2022/09/30 09:56:32;;;;;;;6.53;4.37;;;;;;;23.70;47.57;100998.19;5064262;28;20530;-71
2022/09/30 09:59:07;;;;;;;8.32;4.60;;;;;;;23.88;47.58;100991.66;5064531;28;20407;-68
2022/09/30 10:01:35;;;;;;;5.88;4.75;;;;;;;23.90;47.55;100997.66;5065510;28;20422;-68
2022/09/30 10:04:16;;;;;;;6.40;4.68;;;;;;;24.04;47.75;100988.06;5054374;28;20735;-68
2022/09/30 10:07:13;;;;;;;6.38;4.20;;;;;;;24.20;47.65;100990.94;5086793;27;20410;-67
2022/09/30 10:09:41;;;;;;;6.63;4.90;;;;;;;24.33;47.24;100976.19;5077817;28;20759;-69
2022/09/30 10:12:07;;;;;;;7.33;4.47;;;;;;;24.46;47.10;100969.53;5077951;28;20474;-67
2022/09/30 10:14:44;;;;;;;9.52;5.10;;;;;;;24.51;47.57;100964.97;5075149;28;20796;-67
2022/09/30 10:17:18;;;;;;;9.00;5.88;;;;;;;24.28;48.10;100974.25;5086075;28;20439;-67
2022/09/30 10:19:50;;;;;;;7.18;5.53;;;;;;;24.18;48.35;100963.28;5072137;28;20719;-69
2022/09/30 10:22:16;;;;;;;8.30;5.60;;;;;;;24.35;48.38;100971.34;5080377;28;21080;-68
2022/09/30 10:24:42;;;;;;;7.75;5.35;;;;;;;24.47;48.33;100972.00;5075319;28;20477;-67
2022/09/30 10:27:28;;;;;;;8.55;5.88;;;;;;;24.39;47.92;100981.38;5070867;28;20387;-68
2022/09/30 10:29:54;;;;;;;11.13;6.15;;;;;;;24.35;48.12;100976.75;5086587;28;20386;-68
2022/09/30 10:32:21;;;;;;;9.73;6.00;;;;;;;24.43;48.13;100989.81;5072586;28;20382;-68
2022/09/30 10:35:12;;;;;;;10.50;5.30;;;;;;;24.51;48.30;100983.16;5086339;28;20381;-67
2022/09/30 10:37:37;;;;;;;7.10;5.22;;;;;;;24.65;48.14;100988.97;5070998;28;20469;-68
2022/09/30 10:40:07;;;;;;;10.30;5.60;;;;;;;24.70;47.59;100981.69;5086284;28;20478;-68
2022/09/30 10:42:37;;;;;;;7.28;5.13;;;;;;;24.67;47.16;100993.06;5085928;28;20394;-68
2022/09/30 10:45:09;;;;;;;6.23;4.77;;;;;;;24.67;46.81;100992.25;5086564;28;20772;-69
2022/09/30 10:47:42;;;;;;;6.15;4.72;;;;;;;24.74;46.79;100984.72;5071665;28;20923;-68
2022/09/30 10:52:27;;;;;;;6.28;4.43;;;;;;;24.77;46.70;100985.00;5087644;27;20408;-68
2022/09/30 10:55:00;;;;;;;7.13;5.83;;;;;;;24.78;47.04;100999.41;5066556;28;20395;-69
2022/09/30 10:57:28;;;;;;;7.82;4.35;;;;;;;24.87;47.35;100995.16;5066525;28;20396;-68
2022/09/30 11:02:29;;;;;;;7.15;4.32;;;;;;;24.79;46.93;100982.88;5047042;28;20401;-69
2022/09/30 11:05:09;;;;;;;5.93;4.10;;;;;;;24.72;47.27;100985.00;5046872;28;20397;-69
2022/09/30 11:07:56;;;;;;;4.80;4.13;;;;;;;24.71;47.37;100986.06;5038879;28;20879;-69
2022/09/30 11:10:43;;;;;;;5.45;3.60;;;;;;;24.73;47.70;100970.34;5043257;28;20393;-69
2022/09/30 11:13:20;;;;;;;7.15;3.72;;;;;;;24.76;47.38;100969.84;5034389;28;20391;-69
2022/09/30 11:16:40;;;;;;;6.35;3.72;;;;;;;24.86;46.81;100965.56;5087246;27;20461;-70
2022/09/30 11:19:22;;;;;;;8.73;3.50;;;;;;;24.81;47.03;100963.63;5065988;28;20470;-69
2022/09/30 11:26:37;;;;;;;8.35;3.33;;;;;;;24.92;46.74;100992.47;5095962;27;20410;-68
2022/09/30 11:29:14;;;;;;;5.28;3.30;;;;;;;25.03;46.43;101001.50;5086252;28;20448;-69
2022/09/30 11:31:44;;;;;;;5.22;3.30;;;;;;;25.15;46.60;101015.69;5085420;28;20398;-70
2022/09/30 11:34:29;;;;;;;4.72;3.17;;;;;;;25.24;46.25;101017.91;5086256;28;20389;-70
2022/09/30 11:37:27;;;;;;;4.50;3.10;;;;;;;25.31;45.44;101021.25;5086432;28;20382;-67
2022/09/30 11:39:59;;;;;;;5.18;2.70;;;;;;;25.34;45.01;101007.19;5066917;28;20403;-70
2022/09/30 11:42:35;;;;;;;4.47;2.60;;;;;;;25.27;44.57;100998.44;5080810;28;20381;-69
2022/09/30 11:45:28;;;;;;;3.40;2.60;;;;;;;25.26;44.88;100996.78;5067338;28;20412;-68
2022/09/30 11:48:32;;;;;;;4.88;2.60;;;;;;;25.31;45.04;100996.84;5083989;28;20382;-68
2022/09/30 11:51:09;;;;;;;6.97;2.90;;;;;;;25.47;45.32;100987.69;5081178;28;20407;-69
2022/09/30 11:53:57;;;;;;;2.70;2.15;;;;;;;25.54;44.12;100999.13;5073204;28;20382;-68
2022/09/30 11:56:37;;;;;;;4.13;2.70;;;;;;;25.54;44.24;100985.56;5076539;28;20407;-68
2022/09/30 11:59:12;;;;;;;3.77;2.30;;;;;;;25.57;43.57;100984.25;5085461;28;20830;-69
2022/09/30 12:01:45;;;;;;;3.80;2.35;;;;;;;25.62;43.19;100992.38;5084498;28;20393;-69
2022/09/30 12:04:37;;;;;;;4.35;2.85;;;;;;;25.62;44.10;100984.25;5072984;27;20404;-69
2022/09/30 12:07:09;;;;;;;5.65;2.63;;;;;;;25.64;44.85;100982.09;5051074;28;20505;-66
2022/09/30 12:09:41;;;;;;;2.80;2.20;;;;;;;25.68;44.25;100980.47;5047261;28;20435;-68
2022/09/30 12:12:12;;;;;;;2.90;1.83;;;;;;;25.63;42.82;100993.22;5049981;28;20812;-68
2022/09/30 12:15:01;;;;;;;5.05;2.22;;;;;;;25.68;42.92;100976.97;5046966;28;20397;-67
2022/09/30 12:17:35;;;;;;;3.90;2.00;;;;;;;25.71;43.86;100981.84;5045392;28;20465;-69
2022/09/30 12:20:15;;;;;;;8.18;2.65;;;;;;;25.78;44.36;100973.47;5046284;28;20393;-68
2022/09/30 12:22:44;;;;;;;6.10;2.30;;;;;;;25.82;43.83;100980.81;5056451;28;20492;-68
2022/09/30 12:25:16;;;;;;;4.47;2.53;;;;;;;25.85;43.86;100974.84;5046612;28;20386;-68
2022/09/30 12:27:50;;;;;;;3.50;1.90;;;;;;;25.85;43.62;100974.84;5044232;28;20377;-68
2022/09/30 12:30:20;;;;;;;2.40;1.70;;;;;;;25.88;42.04;100973.50;5046058;28;20415;-68
2022/09/30 12:33:13;;;;;;;6.43;2.05;;;;;;;25.91;42.27;100973.78;5045680;28;20413;-67
2022/09/30 12:35:48;;;;;;;3.17;2.10;;;;;;;26.00;42.01;100979.56;5046055;28;20389;-68